Time;durP1;ratioP1;P1;durP2;ratioP2;P2;SDS_P1;SDS_P2;PMS_P1;PMS_P2;Temp;Humidity;BMP_temperature;BMP_pressure;BME280_temperature;BME280_humidity;BME280_pressure;Samples;Min_cycle;Max_cycle;Signal;HPM_P1;HPM_P2
2023/06/24 00:00:46;;;;;;;18.95;11.10;;;;;;;21.96;88.16;94832.78;5011189;28;20176;-78
2023/06/24 00:03:16;;;;;;;15.40;11.23;;;;;;;22.11;88.30;94857.63;5011208;28;20197;-78
2023/06/24 00:05:43;;;;;;;18.30;11.20;;;;;;;21.96;88.03;94836.28;5010033;28;20643;-78
2023/06/24 00:08:08;;;;;;;16.10;10.52;;;;;;;22.02;88.16;94843.22;5011421;28;20263;-78
2023/06/24 00:10:33;;;;;;;17.95;10.73;;;;;;;22.09;88.01;94853.59;5011299;28;20255;-78
2023/06/24 00:13:02;;;;;;;17.45;10.45;;;;;;;22.05;88.03;94853.38;5011283;28;20175;-78
2023/06/24 00:15:28;;;;;;;20.33;10.23;;;;;;;22.00;88.44;94845.38;5011220;28;20255;-78
2023/06/24 00:17:53;;;;;;;15.55;10.07;;;;;;;21.96;88.34;94848.88;5011313;28;20298;-78
2023/06/24 00:20:19;;;;;;;19.00;11.38;;;;;;;21.97;88.00;94853.13;5010941;28;20183;-78
2023/06/24 00:22:48;;;;;;;24.63;10.63;;;;;;;21.88;88.31;94839.53;5010980;28;20196;-78
2023/06/24 00:25:14;;;;;;;16.55;10.10;;;;;;;21.88;88.22;94839.53;5011104;28;20177;-78
2023/06/24 00:27:41;;;;;;;17.55;11.35;;;;;;;21.91;87.69;94844.34;5012971;28;20192;-78
2023/06/24 00:30:07;;;;;;;13.30;9.98;;;;;;;21.74;88.35;94812.59;5015100;28;20165;-78
2023/06/24 00:32:33;;;;;;;13.13;10.40;;;;;;;21.87;88.54;94843.31;5014707;28;20870;-78
2023/06/24 00:34:59;;;;;;;12.75;9.98;;;;;;;21.80;88.73;94837.47;5014807;28;20204;-78
2023/06/24 00:37:25;;;;;;;14.88;9.85;;;;;;;21.73;88.74;94847.72;5014891;28;20176;-78
2023/06/24 00:39:51;;;;;;;13.70;10.50;;;;;;;21.73;89.00;94859.25;5015040;28;20518;-78
2023/06/24 00:42:17;;;;;;;13.70;10.80;;;;;;;21.68;89.11;94850.44;5014523;28;20184;-78
2023/06/24 00:44:42;;;;;;;15.80;10.43;;;;;;;21.61;89.11;94831.22;5014717;28;20165;-78
2023/06/24 00:47:08;;;;;;;15.52;11.23;;;;;;;21.65;89.75;94843.75;5014603;28;20183;-78
2023/06/24 00:49:34;;;;;;;13.57;9.23;;;;;;;21.58;89.30;94823.72;5015317;28;20176;-79
2023/06/24 00:52:00;;;;;;;17.15;10.38;;;;;;;21.69;89.36;94833.28;5014718;28;20546;-79
2023/06/24 00:54:30;;;;;;;13.68;9.73;;;;;;;21.68;89.43;94839.72;5014100;28;20584;-79
2023/06/24 00:56:57;;;;;;;12.07;9.07;;;;;;;21.64;89.56;94830.63;5013381;28;20188;-78
2023/06/24 00:59:22;;;;;;;12.43;9.60;;;;;;;21.62;89.48;94835.50;5014355;28;20180;-78
2023/06/24 01:01:49;;;;;;;14.68;10.43;;;;;;;21.62;89.50;94830.16;5014051;28;20177;-78
2023/06/24 01:04:16;;;;;;;19.33;10.48;;;;;;;21.62;88.96;94828.22;5014042;28;20259;-78
2023/06/24 01:06:43;;;;;;;13.68;10.02;;;;;;;21.40;89.10;94793.06;5014205;28;20247;-78
2023/06/24 01:09:09;;;;;;;15.52;10.88;;;;;;;21.56;89.28;94815.16;5013540;28;20203;-78
2023/06/24 01:11:34;;;;;;;17.48;9.88;;;;;;;21.50;89.06;94808.25;5013898;28;20181;-78
2023/06/24 01:13:59;;;;;;;14.15;10.35;;;;;;;21.60;88.98;94829.63;5014083;28;20173;-78
2023/06/24 01:16:34;;;;;;;16.60;10.20;;;;;;;21.53;88.86;94823.78;5013854;28;20650;-78
2023/06/24 01:19:17;;;;;;;15.73;11.13;;;;;;;21.31;90.10;94802.75;5012455;28;20418;-78
2023/06/24 01:21:52;;;;;;;17.40;11.15;;;;;;;21.40;89.84;94817.97;5012261;28;20177;-78
2023/06/24 01:24:51;;;;;;;15.80;10.38;;;;;;;21.48;89.70;94818.44;5012433;28;20175;-78
2023/06/24 01:27:48;;;;;;;17.33;11.05;;;;;;;21.28;89.61;94785.38;5011730;28;20195;-78
2023/06/24 01:30:32;;;;;;;18.55;10.48;;;;;;;21.52;89.12;94830.22;5012302;28;20173;-78
2023/06/24 01:33:08;;;;;;;16.73;10.30;;;;;;;21.49;88.99;94836.91;5012329;28;20315;-78
2023/06/24 01:35:36;;;;;;;16.40;11.45;;;;;;;21.46;88.94;94843.63;5013617;28;20172;-77
2023/06/24 01:38:09;;;;;;;13.85;10.13;;;;;;;21.36;89.04;94834.88;5012923;28;20173;-78
2023/06/24 01:40:42;;;;;;;21.48;13.93;;;;;;;21.37;89.45;94845.31;5013493;28;20251;-78
2023/06/24 01:43:09;;;;;;;23.80;15.65;;;;;;;21.30;89.74;94850.19;5013528;28;20207;-78
2023/06/24 01:45:45;;;;;;;15.63;10.55;;;;;;;21.24;89.98;94845.94;5013521;28;20176;-78
2023/06/24 01:48:16;;;;;;;14.68;11.00;;;;;;;21.10;90.00;94843.03;5012912;28;20552;-78
2023/06/24 01:50:47;;;;;;;18.38;12.88;;;;;;;21.13;90.78;94862.28;5012621;28;20180;-78
2023/06/24 01:53:14;;;;;;;22.75;15.93;;;;;;;21.09;91.01;94859.38;5012320;28;20172;-78
2023/06/24 01:55:43;;;;;;;20.10;13.55;;;;;;;21.09;90.38;94857.50;5013450;28;20227;-78
2023/06/24 01:58:11;;;;;;;15.05;11.50;;;;;;;21.07;90.42;94850.81;5011942;28;20212;-78
2023/06/24 02:00:37;;;;;;;18.48;11.80;;;;;;;21.01;90.81;94857.28;5013306;28;20175;-78
2023/06/24 02:03:05;;;;;;;16.08;11.27;;;;;;;20.95;90.93;94869.06;5013130;28;20282;-78
2023/06/24 02:05:32;;;;;;;18.10;11.70;;;;;;;20.88;91.24;94863.22;5013020;28;20740;-78
2023/06/24 02:07:59;;;;;;;19.30;12.45;;;;;;;20.89;91.19;94872.84;5013199;28;20180;-79
2023/06/24 02:10:25;;;;;;;17.08;11.55;;;;;;;20.89;90.91;94878.22;5011661;28;20184;-79
2023/06/24 02:12:52;;;;;;;25.30;11.38;;;;;;;20.84;91.29;94870.22;5012936;28;20223;-78
2023/06/24 02:15:19;;;;;;;19.10;11.63;;;;;;;20.62;91.76;94860.66;5013080;28;20172;-79
2023/06/24 02:17:47;;;;;;;28.20;12.88;;;;;;;20.74;91.95;94875.59;5012676;28;20180;-79
2023/06/24 02:20:16;;;;;;;16.65;11.35;;;;;;;20.51;91.79;94836.88;5013045;28;20252;-79
2023/06/24 02:22:42;;;;;;;18.23;10.95;;;;;;;20.70;91.59;94876.16;5011112;28;20610;-79
2023/06/24 02:25:08;;;;;;;15.98;10.98;;;;;;;20.73;92.26;94882.84;5012799;28;20180;-79
2023/06/24 02:27:36;;;;;;;20.80;11.18;;;;;;;20.73;92.58;94887.38;5012822;28;20165;-78
2023/06/24 02:30:04;;;;;;;28.73;16.50;;;;;;;20.66;92.07;94893.03;5011449;28;20180;-78
2023/06/24 02:32:30;;;;;;;16.88;12.27;;;;;;;20.59;92.37;94908.53;5013020;28;20160;-78
2023/06/24 02:34:58;;;;;;;16.48;11.35;;;;;;;20.33;91.66;94864.97;5011768;28;20519;-78
2023/06/24 02:37:23;;;;;;;16.05;11.48;;;;;;;20.52;92.42;94897.34;5011308;28;20172;-78
2023/06/24 02:39:49;;;;;;;22.52;11.70;;;;;;;20.54;92.47;94912.03;5012283;28;20199;-78
2023/06/24 02:42:14;;;;;;;21.48;11.63;;;;;;;20.52;92.67;94903.47;5012242;28;20200;-78
2023/06/24 02:44:40;;;;;;;17.33;11.02;;;;;;;20.45;92.94;94902.97;5012339;28;20323;-78
2023/06/24 02:47:09;;;;;;;14.63;11.02;;;;;;;20.48;93.11;94904.31;5012403;28;20176;-78
2023/06/24 02:49:37;;;;;;;19.02;11.73;;;;;;;20.51;93.40;94904.56;5010529;28;20657;-78
2023/06/24 02:52:03;;;;;;;19.83;13.07;;;;;;;20.56;93.53;94906.44;5012179;28;20677;-78
2023/06/24 02:54:29;;;;;;;16.63;11.15;;;;;;;20.53;92.90;94910.44;5011917;28;20216;-78
2023/06/24 02:56:57;;;;;;;15.68;10.25;;;;;;;20.60;93.02;94913.63;5012235;28;20636;-78
2023/06/24 02:59:24;;;;;;;16.38;11.38;;;;;;;20.66;92.93;94917.91;5012219;28;20638;-78
2023/06/24 03:01:51;;;;;;;17.40;10.55;;;;;;;20.60;92.68;94907.47;5011981;28;20555;-78
2023/06/24 03:04:17;;;;;;;13.82;11.20;;;;;;;20.63;92.97;94915.78;5011778;28;20604;-78
2023/06/24 03:06:44;;;;;;;14.88;11.15;;;;;;;20.63;93.00;94914.97;5011987;28;20215;-78
2023/06/24 03:09:09;;;;;;;15.73;10.88;;;;;;;20.55;92.77;94899.47;5011833;28;20183;-78
2023/06/24 03:11:42;;;;;;;18.25;10.25;;;;;;;20.70;92.48;94910.13;5012120;28;20172;-78
2023/06/24 03:14:08;;;;;;;31.35;20.83;;;;;;;20.77;92.82;94905.28;5010824;28;20169;-80
2023/06/24 03:16:34;;;;;;;21.95;13.63;;;;;;;20.88;92.00;94928.25;5011592;28;20180;-78
2023/06/24 03:18:59;;;;;;;20.75;14.25;;;;;;;20.94;91.21;94921.00;5011727;28;20179;-79
2023/06/24 03:21:28;;;;;;;21.13;11.52;;;;;;;20.95;90.96;94914.59;5011714;28;20650;-79
2023/06/24 03:23:54;;;;;;;19.48;11.57;;;;;;;21.05;90.96;94923.38;5011724;28;20205;-79
2023/06/24 03:26:19;;;;;;;19.98;13.68;;;;;;;21.12;91.22;94923.06;5010209;28;20185;-79
2023/06/24 03:28:44;;;;;;;16.55;12.30;;;;;;;21.08;91.24;94914.00;5011536;28;20268;-79
2023/06/24 03:31:10;;;;;;;17.27;11.05;;;;;;;21.32;90.44;94941.75;5011713;28;20165;-79
2023/06/24 03:33:35;;;;;;;18.15;11.82;;;;;;;21.32;90.42;94935.59;5011710;28;20654;-79
2023/06/24 03:36:01;;;;;;;13.50;10.95;;;;;;;21.52;89.40;94948.91;5010638;28;20169;-79
2023/06/24 03:38:27;;;;;;;16.52;11.20;;;;;;;21.50;89.25;94928.81;5011738;28;20229;-79
2023/06/24 03:40:53;;;;;;;17.83;11.70;;;;;;;21.70;88.83;94956.31;5011649;28;20212;-79
2023/06/24 03:43:18;;;;;;;13.68;10.30;;;;;;;21.78;89.18;94947.66;5011369;28;20235;-79
2023/06/24 03:45:44;;;;;;;19.48;10.27;;;;;;;21.90;88.50;94955.34;5011905;28;20180;-79
2023/06/24 03:48:09;;;;;;;15.77;10.55;;;;;;;21.93;87.46;94960.16;5011668;28;20724;-79
2023/06/24 03:50:35;;;;;;;18.25;10.18;;;;;;;21.94;87.43;94972.50;5011295;28;20180;-79
2023/06/24 03:53:00;;;;;;;16.08;10.50;;;;;;;21.79;87.52;94961.88;5011235;28;20567;-79
2023/06/24 03:55:26;;;;;;;17.55;10.77;;;;;;;21.78;87.20;94963.75;5011043;28;20239;-79
2023/06/24 03:57:51;;;;;;;17.98;11.07;;;;;;;21.93;87.90;94962.03;5011302;28;20667;-82
2023/06/24 04:00:17;;;;;;;18.67;10.98;;;;;;;22.01;88.08;94948.88;5011072;28;20295;-84
2023/06/24 04:02:45;;;;;;;15.60;10.23;;;;;;;22.27;86.77;94962.06;5014496;28;20196;-83
2023/06/24 04:05:10;;;;;;;15.88;10.75;;;;;;;22.23;87.05;94920.81;5015767;28;20176;-83
2023/06/24 04:07:36;;;;;;;15.00;11.05;;;;;;;22.66;87.02;94972.72;5015869;28;20646;-83
2023/06/24 04:10:08;;;;;;;14.68;10.70;;;;;;;22.82;86.17;94971.53;5016141;28;20254;-82
2023/06/24 04:12:35;;;;;;;17.00;11.30;;;;;;;22.81;85.79;94948.44;5016250;28;20152;-82
2023/06/24 04:15:03;;;;;;;16.75;12.15;;;;;;;23.03;84.59;94959.47;5016225;28;20160;-82
2023/06/24 04:17:29;;;;;;;16.13;11.20;;;;;;;23.11;83.36;94949.97;5015777;28;20168;-82
2023/06/24 04:19:55;;;;;;;20.48;12.00;;;;;;;22.83;82.79;94917.53;5015662;28;20153;-82
2023/06/24 04:22:20;;;;;;;16.95;11.10;;;;;;;23.16;82.74;94947.25;5015947;28;20834;-82
2023/06/24 04:24:46;;;;;;;14.65;11.10;;;;;;;23.31;81.26;94950.53;5015792;28;20172;-82
2023/06/24 04:27:11;;;;;;;21.92;13.05;;;;;;;23.50;80.02;94950.59;5015667;28;20667;-82
2023/06/24 04:29:36;;;;;;;22.92;11.02;;;;;;;23.55;79.28;94955.09;5015727;28;20180;-82
2023/06/24 04:32:02;;;;;;;14.20;10.95;;;;;;;23.72;79.05;94957.28;5015205;28;20203;-82
2023/06/24 04:34:27;;;;;;;15.68;11.50;;;;;;;23.85;78.13;94953.88;5015015;28;20219;-82
2023/06/24 04:36:53;;;;;;;22.20;14.05;;;;;;;24.17;79.60;94959.28;5014714;28;20173;-82
2023/06/24 04:39:21;;;;;;;17.73;12.68;;;;;;;24.48;79.61;94956.09;5014667;28;20195;-82
2023/06/24 04:41:47;;;;;;;14.35;10.73;;;;;;;24.63;77.16;94937.03;5013191;28;20180;-84
2023/06/24 04:44:12;;;;;;;19.10;10.93;;;;;;;25.04;74.91;94967.50;5013292;28;20872;-84
2023/06/24 04:46:39;;;;;;;27.08;17.25;;;;;;;25.12;73.97;94961.44;5014736;28;20196;-86
2023/06/24 04:49:05;;;;;;;40.30;23.52;;;;;;;25.40;74.79;94972.19;5014890;28;20173;-83
2023/06/24 04:51:30;;;;;;;16.77;12.13;;;;;;;25.45;74.10;94945.13;5012885;28;20270;-82
2023/06/24 04:53:56;;;;;;;19.35;13.32;;;;;;;25.96;74.02;94981.81;5014443;28;20215;-82
2023/06/24 04:56:21;;;;;;;14.63;11.07;;;;;;;26.17;72.77;94975.66;5014328;28;20255;-83
2023/06/24 04:58:47;;;;;;;18.70;14.20;;;;;;;26.45;70.40;94980.97;5015008;28;20172;-82
2023/06/24 05:01:13;;;;;;;20.98;13.60;;;;;;;26.60;68.45;94973.28;5015074;28;20200;-82
2023/06/24 05:03:39;;;;;;;14.32;11.80;;;;;;;26.85;66.79;94987.25;5014140;28;20193;-82
2023/06/24 05:06:04;;;;;;;14.23;11.77;;;;;;;26.92;66.28;94964.09;5014166;28;20178;-81
2023/06/24 05:08:30;;;;;;;16.35;11.07;;;;;;;27.28;65.63;94971.25;5014350;28;20196;-81
2023/06/24 05:10:55;;;;;;;16.83;12.15;;;;;;;27.47;64.25;94977.19;5014424;28;20673;-81
2023/06/24 05:13:21;;;;;;;16.52;11.65;;;;;;;27.65;63.10;94983.47;5028819;28;20229;-81
2023/06/24 05:15:46;;;;;;;16.33;10.50;;;;;;;27.78;65.16;94950.84;5013840;28;20757;-81
2023/06/24 05:18:11;;;;;;;19.60;11.70;;;;;;;28.26;62.39;94982.44;5013938;28;20180;-81
2023/06/24 05:20:37;;;;;;;15.88;11.60;;;;;;;28.55;62.38;94970.94;5013819;28;20206;-81
2023/06/24 05:23:02;;;;;;;16.65;12.25;;;;;;;28.87;61.50;94966.94;5013772;28;20188;-80
2023/06/24 05:25:27;;;;;;;13.73;10.35;;;;;;;29.31;61.63;94965.66;5013888;28;20173;-82
2023/06/24 05:27:53;;;;;;;18.80;11.40;;;;;;;29.58;59.39;94957.03;5013740;28;20640;-81
2023/06/24 05:30:18;;;;;;;15.95;11.57;;;;;;;29.90;58.85;94958.31;5014968;28;20230;-81
2023/06/24 05:32:44;;;;;;;13.85;10.80;;;;;;;30.09;58.84;94940.78;5013958;28;20172;-82
2023/06/24 05:35:10;;;;;;;14.30;9.35;;;;;;;30.27;54.38;94944.94;5013545;28;20548;-82
2023/06/24 05:37:35;;;;;;;10.75;8.52;;;;;;;30.68;54.62;94972.06;5013637;28;20188;-81
2023/06/24 05:40:02;;;;;;;15.90;10.48;;;;;;;30.58;52.24;94950.75;5013663;28;20677;-82
2023/06/24 05:42:27;;;;;;;15.82;10.02;;;;;;;30.52;53.26;94932.25;5013463;28;20282;-80
2023/06/24 05:44:53;;;;;;;13.45;10.45;;;;;;;30.86;53.81;94971.91;5013667;28;20203;-80
2023/06/24 05:47:19;;;;;;;12.57;9.43;;;;;;;30.73;54.92;94933.00;5013371;28;20176;-81
2023/06/24 05:49:44;;;;;;;12.88;10.70;;;;;;;31.24;54.90;94958.81;5013950;28;20171;-81
2023/06/24 05:52:11;;;;;;;14.82;11.00;;;;;;;31.46;55.58;94963.03;5014564;28;20157;-84
2023/06/24 05:54:37;;;;;;;20.55;10.50;;;;;;;31.65;55.06;94930.63;5014304;28;20220;-82
2023/06/24 05:57:05;;;;;;;15.43;11.00;;;;;;;31.88;52.27;94947.25;5014003;28;20181;-82
2023/06/24 05:59:31;;;;;;;19.58;12.15;;;;;;;31.72;53.88;94932.75;5013300;28;20306;-81
2023/06/24 06:01:56;;;;;;;14.50;11.50;;;;;;;31.88;52.46;94947.25;5013111;28;20259;-86
2023/06/24 06:04:22;;;;;;;16.50;11.65;;;;;;;31.88;51.59;94919.22;5012959;28;20621;-86
2023/06/24 06:06:47;;;;;;;13.20;10.13;;;;;;;32.08;50.83;94956.41;5012113;28;20199;-87
2023/06/24 06:09:12;;;;;;;11.65;9.57;;;;;;;31.32;51.87;94910.84;5012171;28;21039;-86
2023/06/24 06:11:38;;;;;;;18.67;11.52;;;;;;;31.06;51.68;94898.34;5011197;28;20183;-89
2023/06/24 06:14:03;;;;;;;18.20;10.85;;;;;;;30.99;52.64;94911.72;5012932;28;20172;-84
2023/06/24 06:16:29;;;;;;;15.35;10.88;;;;;;;30.84;53.00;94925.19;5012930;28;20648;-86
2023/06/24 06:18:54;;;;;;;12.95;10.05;;;;;;;30.96;53.80;94944.28;5012848;28;20259;-84
2023/06/24 06:21:19;;;;;;;17.02;11.23;;;;;;;31.14;55.03;94945.66;5012852;28;20177;-83
2023/06/24 06:23:45;;;;;;;14.52;10.20;;;;;;;31.25;54.51;94935.13;5012474;28;20208;-83
2023/06/24 06:26:10;;;;;;;16.98;9.57;;;;;;;31.38;53.51;94936.72;5012729;28;20195;-82
2023/06/24 06:28:36;;;;;;;21.02;10.60;;;;;;;31.29;52.99;94950.44;5013450;28;20165;-83
2023/06/24 06:31:01;;;;;;;16.00;11.38;;;;;;;31.06;51.93;94950.03;5013335;28;20176;-82
2023/06/24 06:33:26;;;;;;;17.90;9.82;;;;;;;31.05;56.14;94925.91;5013498;28;20166;-83
2023/06/24 06:35:52;;;;;;;14.52;10.15;;;;;;;31.43;54.50;94942.72;5013371;28;20173;-82
2023/06/24 06:38:17;;;;;;;16.83;10.20;;;;;;;31.71;54.48;94958.41;5013537;28;20163;-83
2023/06/24 06:40:43;;;;;;;13.40;9.63;;;;;;;31.86;54.21;94950.31;5012983;28;20247;-83
2023/06/24 06:43:08;;;;;;;16.00;10.18;;;;;;;31.96;53.44;94950.97;5012881;28;20583;-83
2023/06/24 06:45:33;;;;;;;11.50;10.13;;;;;;;32.17;51.78;94963.31;5012525;28;20180;-83
2023/06/24 06:47:59;;;;;;;13.52;9.75;;;;;;;32.15;51.62;94941.06;5012407;28;20173;-83
2023/06/24 06:50:24;;;;;;;11.77;8.93;;;;;;;32.30;49.62;94968.75;5012334;28;20172;-83
2023/06/24 06:52:49;;;;;;;14.95;9.00;;;;;;;32.22;50.70;94962.28;5012914;28;20179;-83
2023/06/24 06:55:15;;;;;;;13.95;8.75;;;;;;;32.19;52.15;94941.97;5013041;28;20224;-83
2023/06/24 06:57:40;;;;;;;13.43;10.88;;;;;;;31.91;49.89;94941.13;5011703;28;20361;-83
2023/06/24 07:00:06;;;;;;;17.00;9.82;;;;;;;32.10;49.93;94952.19;5012992;28;20223;-83
2023/06/24 07:02:32;;;;;;;11.30;9.15;;;;;;;32.34;50.10;94959.53;5012782;28;20227;-83
2023/06/24 07:04:59;;;;;;;15.15;9.23;;;;;;;32.35;49.12;94968.47;5013007;28;20618;-83
2023/06/24 07:07:24;;;;;;;17.80;9.35;;;;;;;32.46;50.90;94966.88;5012996;28;20156;-83
2023/06/24 07:09:50;;;;;;;10.73;8.45;;;;;;;32.44;50.55;94964.47;5013586;28;20184;-83
2023/06/24 07:12:15;;;;;;;10.25;8.20;;;;;;;32.67;51.80;94961.22;5012778;28;20164;-83
2023/06/24 07:14:42;;;;;;;12.50;9.55;;;;;;;32.47;46.36;94947.44;5013036;28;20183;-83
2023/06/24 07:17:08;;;;;;;10.98;9.80;;;;;;;32.63;48.89;94960.31;5012611;28;20218;-83
2023/06/24 07:19:33;;;;;;;18.60;9.30;;;;;;;32.58;49.87;94940.34;5012504;28;20255;-83
2023/06/24 07:21:58;;;;;;;15.15;9.88;;;;;;;32.87;48.63;94958.28;5011908;28;20191;-84
2023/06/24 07:24:24;;;;;;;13.55;8.43;;;;;;;32.93;50.56;94969.75;5011887;28;20183;-84
2023/06/24 07:26:52;;;;;;;11.00;8.57;;;;;;;32.80;48.53;94943.66;5012078;28;20282;-84
2023/06/24 07:29:17;;;;;;;10.68;7.90;;;;;;;32.93;48.59;94956.09;5011680;28;20218;-84
2023/06/24 07:31:42;;;;;;;14.95;8.20;;;;;;;32.49;46.27;94919.81;5026946;28;20281;-84
2023/06/24 07:34:08;;;;;;;10.30;8.60;;;;;;;32.36;46.88;94954.50;5011631;28;20172;-84
2023/06/24 07:36:33;;;;;;;9.43;8.15;;;;;;;32.45;47.69;94959.81;5011386;28;20255;-84
2023/06/24 07:38:59;;;;;;;10.13;8.48;;;;;;;32.61;47.71;94956.00;5011219;28;20732;-84
2023/06/24 07:41:25;;;;;;;12.77;8.48;;;;;;;32.99;50.02;94962.88;5010298;28;20565;-84
2023/06/24 07:43:50;;;;;;;11.80;9.05;;;;;;;33.03;47.28;94941.16;5011416;28;20223;-85
2023/06/24 07:46:17;;;;;;;11.43;8.48;;;;;;;32.80;46.26;94938.19;5011612;28;20173;-86
2023/06/24 07:48:43;;;;;;;9.75;8.73;;;;;;;32.65;48.62;94920.66;5011615;28;20180;-85
2023/06/24 07:51:09;;;;;;;9.85;8.85;;;;;;;32.71;46.13;94956.66;5012091;28;20176;-82
2023/06/24 07:53:34;;;;;;;13.82;8.80;;;;;;;32.38;47.97;94962.34;5011954;28;20172;-83
2023/06/24 07:55:59;;;;;;;10.52;8.07;;;;;;;32.21;50.65;94928.00;5012135;28;20179;-86
2023/06/24 07:58:25;;;;;;;9.45;8.48;;;;;;;32.81;49.37;94965.13;5011688;28;20660;-84
2023/06/24 08:00:50;;;;;;;13.18;10.10;;;;;;;33.23;47.24;94970.94;5010279;28;20235;-82
2023/06/24 08:03:15;;;;;;;9.85;8.18;;;;;;;33.52;49.08;94969.69;5026452;28;20196;-84
2023/06/24 08:05:41;;;;;;;14.40;8.45;;;;;;;33.41;46.77;94970.56;5011492;28;20996;-81
2023/06/24 08:08:08;;;;;;;10.75;8.60;;;;;;;33.28;45.98;94928.94;5011380;28;20208;-87
2023/06/24 08:10:33;;;;;;;17.23;8.63;;;;;;;33.62;48.87;94966.44;5010542;28;20184;-85
2023/06/24 08:12:58;;;;;;;9.95;8.98;;;;;;;33.55;48.21;94922.56;5011039;28;20239;-85
2023/06/24 08:15:24;;;;;;;13.05;8.70;;;;;;;33.71;45.25;94934.25;5026501;28;20211;-85
2023/06/24 08:17:53;;;;;;;16.00;9.68;;;;;;;33.94;45.11;94958.97;5008575;28;20646;-85
2023/06/24 08:20:22;;;;;;;14.07;8.70;;;;;;;33.49;47.14;94959.47;5010105;28;20175;-84
2023/06/24 08:22:47;;;;;;;10.80;8.50;;;;;;;32.85;46.81;94925.13;5009316;28;20272;-84
2023/06/24 08:25:13;;;;;;;13.35;8.85;;;;;;;32.96;46.99;94955.38;5010699;28;20763;-84
2023/06/24 08:27:38;;;;;;;14.40;8.80;;;;;;;33.04;51.12;94953.66;5010920;28;20175;-83
2023/06/24 08:30:07;;;;;;;10.45;8.27;;;;;;;32.97;47.63;94952.31;5011022;28;20184;-83
2023/06/24 08:32:33;;;;;;;11.10;9.10;;;;;;;32.65;46.99;94942.47;5010293;28;20183;-83
2023/06/24 08:34:59;;;;;;;13.50;9.80;;;;;;;32.21;49.02;94923.34;5012403;28;20161;-84
2023/06/24 08:37:24;;;;;;;13.30;10.02;;;;;;;31.92;47.99;94920.09;5011232;28;20180;-84
2023/06/24 08:39:49;;;;;;;10.82;8.98;;;;;;;32.26;49.66;94946.06;5010815;28;20268;-84
2023/06/24 08:42:15;;;;;;;15.02;9.27;;;;;;;32.59;49.45;94927.50;5008213;28;20714;-85
2023/06/24 08:44:41;;;;;;;11.82;9.80;;;;;;;33.07;50.89;94934.63;5010621;28;20664;-83
2023/06/24 08:47:06;;;;;;;9.93;8.15;;;;;;;32.80;47.26;94932.75;5010585;28;20247;-84
2023/06/24 08:49:34;;;;;;;13.32;8.63;;;;;;;32.27;49.37;94895.84;5013896;28;20183;-84
2023/06/24 08:52:07;;;;;;;10.00;8.95;;;;;;;32.27;50.35;94926.59;5014263;28;20243;-83
2023/06/24 08:54:35;;;;;;;11.73;8.80;;;;;;;32.20;48.96;94929.13;5013678;28;20219;-82
2023/06/24 08:57:10;;;;;;;12.82;9.02;;;;;;;32.08;50.08;94929.97;5011768;28;20168;-82
2023/06/24 08:59:37;;;;;;;10.45;8.48;;;;;;;32.12;49.43;94925.38;5013103;28;20160;-82
2023/06/24 09:02:03;;;;;;;12.90;9.23;;;;;;;32.51;51.87;94926.53;5029425;28;20180;-81
2023/06/24 09:04:28;;;;;;;9.93;8.25;;;;;;;32.65;49.81;94884.41;5014254;28;20191;-85
2023/06/24 09:06:53;;;;;;;12.18;9.43;;;;;;;33.21;51.44;94913.16;5014219;28;20196;-81
2023/06/24 09:09:22;;;;;;;10.57;9.07;;;;;;;32.87;48.08;94920.06;5014172;28;20183;-83
2023/06/24 09:11:56;;;;;;;12.25;8.93;;;;;;;32.84;48.23;94911.81;5013883;28;20183;-81
2023/06/24 09:14:22;;;;;;;9.75;8.45;;;;;;;32.80;48.27;94911.72;5014298;28;20172;-81
2023/06/24 09:16:55;;;;;;;13.18;9.40;;;;;;;32.65;48.76;94903.50;5012940;28;20180;-80
2023/06/24 09:19:24;;;;;;;11.80;8.93;;;;;;;32.65;50.97;94898.03;5013189;28;20179;-81
2023/06/24 09:21:52;;;;;;;11.20;8.70;;;;;;;32.64;51.85;94913.59;5014847;28;20169;-84
2023/06/24 09:24:18;;;;;;;10.40;8.10;;;;;;;32.70;49.72;94919.63;5014833;28;20199;-79
2023/06/24 09:26:47;;;;;;;11.00;8.43;;;;;;;32.57;50.60;94924.31;5013902;28;20271;-80
2023/06/24 09:29:14;;;;;;;11.23;8.57;;;;;;;32.56;50.68;94914.56;5013835;28;20185;-80
2023/06/24 09:31:49;;;;;;;12.98;9.60;;;;;;;32.65;49.66;94926.09;5014036;28;20177;-79
2023/06/24 09:34:15;;;;;;;10.32;8.38;;;;;;;32.60;50.52;94918.97;5013501;28;20176;-79
2023/06/24 09:36:45;;;;;;;12.27;8.52;;;;;;;32.69;48.94;94926.22;5012647;28;20602;-80
2023/06/24 09:39:11;;;;;;;9.15;7.93;;;;;;;32.21;48.82;94922.56;5013149;28;20184;-79
2023/06/24 09:41:40;;;;;;;12.40;9.10;;;;;;;32.14;50.30;94927.78;5012152;28;20180;-80
2023/06/24 09:44:10;;;;;;;11.80;8.73;;;;;;;32.25;49.46;94923.47;5013216;28;20197;-79
2023/06/24 09:46:37;;;;;;;9.63;8.43;;;;;;;32.19;48.60;94928.34;5013595;28;20179;-80
2023/06/24 09:49:03;;;;;;;11.98;8.80;;;;;;;32.17;48.06;94919.72;5012649;28;20184;-81
2023/06/24 09:51:28;;;;;;;20.15;9.00;;;;;;;32.01;49.42;94926.22;5013432;28;20173;-80
2023/06/24 09:53:57;;;;;;;10.73;7.90;;;;;;;31.81;49.22;94917.09;5013162;28;20224;-80
2023/06/24 09:56:23;;;;;;;11.57;9.00;;;;;;;31.89;51.97;94918.09;5013197;28;20183;-79
2023/06/24 09:58:49;;;;;;;10.77;7.97;;;;;;;31.97;52.18;94911.72;5012796;28;20177;-79
2023/06/24 10:01:16;;;;;;;10.38;8.40;;;;;;;32.05;51.42;94905.31;5012908;28;20187;-80
2023/06/24 10:03:42;;;;;;;8.75;7.35;;;;;;;32.16;48.82;94901.81;5012586;28;20812;-80
2023/06/24 10:06:08;;;;;;;9.95;7.45;;;;;;;32.12;47.79;94900.06;5011104;28;20295;-79
2023/06/24 10:08:34;;;;;;;11.38;7.90;;;;;;;31.93;48.03;94899.91;5012219;28;20641;-78
2023/06/24 10:11:00;;;;;;;11.32;7.82;;;;;;;31.29;48.77;94876.19;5010994;28;20173;-78
2023/06/24 10:13:26;;;;;;;13.48;8.80;;;;;;;31.13;49.89;94883.44;5012877;28;20176;-78
2023/06/24 10:15:52;;;;;;;12.88;8.20;;;;;;;30.95;50.65;94872.75;5012611;28;20311;-79
2023/06/24 10:18:34;;;;;;;10.90;7.90;;;;;;;31.01;48.90;94882.28;5013405;28;20168;-79
2023/06/24 10:21:00;;;;;;;10.75;7.93;;;;;;;30.79;50.46;94879.22;5011930;28;20184;-78
2023/06/24 10:23:47;;;;;;;12.32;8.70;;;;;;;30.71;50.54;94870.78;5012896;28;20211;-79
2023/06/24 10:26:35;;;;;;;16.52;8.55;;;;;;;30.65;51.45;94830.56;5000727;28;20628;-78
2023/06/24 10:29:07;;;;;;;12.10;8.02;;;;;;;30.62;51.59;94859.22;5012778;28;20177;-79
2023/06/24 10:31:42;;;;;;;12.85;8.70;;;;;;;30.68;52.08;94857.88;5011927;28;20177;-80
2023/06/24 10:34:27;;;;;;;12.55;8.52;;;;;;;30.82;56.10;94852.13;5011462;28;20168;-79
2023/06/24 10:37:19;;;;;;;15.18;8.65;;;;;;;30.94;54.20;94827.66;5012205;28;20700;-80
2023/06/24 10:39:55;;;;;;;8.77;6.93;;;;;;;31.26;51.46;94839.56;5012392;28;20187;-80
2023/06/24 10:42:41;;;;;;;12.75;8.00;;;;;;;31.38;53.29;94830.59;5012165;28;20195;-79
2023/06/24 10:45:09;;;;;;;10.27;7.95;;;;;;;31.48;50.56;94836.31;5011497;28;20198;-79
2023/06/24 10:47:39;;;;;;;13.77;8.70;;;;;;;31.38;50.35;94801.44;5012286;28;20271;-80
2023/06/24 10:50:05;;;;;;;10.23;7.40;;;;;;;31.02;50.59;94807.69;5011534;28;20177;-79
2023/06/24 10:52:31;;;;;;;12.63;7.68;;;;;;;30.95;52.79;94806.69;5012269;28;20729;-81
2023/06/24 10:54:58;;;;;;;14.60;7.78;;;;;;;31.01;50.37;94808.84;5012312;28;20341;-79
2023/06/24 10:57:26;;;;;;;9.43;6.82;;;;;;;31.08;49.90;94811.78;5012833;28;20187;-78
2023/06/24 10:59:53;;;;;;;11.95;7.78;;;;;;;31.21;51.00;94815.31;5012463;28;20540;-79
2023/06/24 11:02:21;;;;;;;11.07;7.00;;;;;;;31.18;47.66;94799.66;5011931;28;20578;-79
2023/06/24 11:04:51;;;;;;;10.18;7.18;;;;;;;31.29;47.82;94806.22;5012020;28;20180;-79
2023/06/24 11:07:21;;;;;;;11.80;7.07;;;;;;;31.25;46.77;94805.31;5011934;28;20173;-81
2023/06/24 11:09:55;;;;;;;8.15;6.65;;;;;;;31.25;47.07;94809.97;5010698;28;20182;-80
2023/06/24 11:12:25;;;;;;;10.00;6.20;;;;;;;31.11;46.76;94813.84;5009846;28;20262;-80
2023/06/24 11:14:55;;;;;;;10.38;6.40;;;;;;;31.15;48.44;94810.41;5010091;28;20180;-81
2023/06/24 11:17:20;;;;;;;9.30;6.53;;;;;;;31.28;48.09;94814.72;5011862;28;20230;-81
2023/06/24 11:19:46;;;;;;;10.98;6.38;;;;;;;31.26;46.94;94814.28;5012025;28;20177;-81
2023/06/24 11:22:11;;;;;;;8.50;6.07;;;;;;;31.13;46.70;94812.72;5011504;28;20188;-79